createdAt,value
2022-09-20T00:02:07.515Z,4.27
2022-09-20T00:04:29.811Z,3.77
2022-09-20T00:06:52.017Z,4.23
2022-09-20T00:09:14.635Z,5.17
2022-09-20T00:11:39.473Z,4.73
2022-09-20T00:14:02.427Z,4.40
2022-09-20T00:16:26.914Z,4.57
2022-09-20T00:18:50.425Z,5.57
2022-09-20T00:21:16.982Z,4.13
2022-09-20T00:23:39.869Z,4.30
2022-09-20T00:26:02.767Z,4.47
2022-09-20T00:28:25.550Z,4.73
2022-09-20T00:30:49.204Z,4.30
2022-09-20T00:33:11.460Z,4.43
2022-09-20T00:35:33.697Z,4.00
2022-09-20T00:37:56.586Z,3.60
2022-09-20T00:40:20.559Z,4.07
2022-09-20T00:42:42.882Z,3.37
2022-09-20T00:45:17.368Z,3.70
2022-09-20T00:47:39.642Z,3.73
2022-09-20T00:50:08.212Z,4.10
2022-09-20T00:52:30.834Z,4.00
2022-09-20T00:54:53.585Z,4.07
2022-09-20T00:57:15.825Z,3.90
2022-09-20T00:59:40.714Z,3.90
2022-09-20T01:02:20.968Z,3.50
2022-09-20T01:04:44.820Z,4.07
2022-09-20T01:07:08.743Z,3.67
2022-09-20T01:09:30.948Z,3.40
2022-09-20T01:11:55.812Z,3.30
2022-09-20T01:14:23.796Z,4.47
2022-09-20T01:16:46.140Z,4.37
2022-09-20T01:19:17.398Z,4.50
2022-09-20T01:21:40.266Z,3.77
2022-09-20T01:24:14.790Z,4.40
2022-09-20T01:26:55.904Z,3.97
2022-09-20T01:29:35.236Z,3.67
2022-09-20T01:31:59.438Z,4.30
2022-09-20T01:34:28.268Z,5.07
2022-09-20T01:36:52.815Z,3.83
2022-09-20T01:39:21.316Z,4.87
2022-09-20T01:41:49.668Z,4.93
2022-09-20T01:44:11.870Z,4.90
2022-09-20T01:46:35.316Z,4.37
2022-09-20T01:49:17.800Z,4.40
2022-09-20T01:51:43.109Z,4.43
2022-09-20T01:54:24.160Z,4.20
2022-09-20T01:56:49.407Z,4.67
2022-09-20T01:59:27.203Z,4.73
2022-09-20T02:02:10.441Z,5.20
2022-09-20T02:04:51.728Z,4.47
2022-09-20T02:07:32.762Z,4.43
2022-09-20T02:10:10.574Z,4.80
2022-09-20T02:12:45.137Z,4.30
2022-09-20T02:15:07.341Z,5.47
2022-09-20T02:17:35.620Z,5.50
2022-09-20T02:20:10.112Z,5.33
2022-09-20T02:22:41.412Z,4.70
2022-09-20T02:25:06.776Z,4.57
2022-09-20T02:27:35.023Z,4.93
2022-09-20T02:29:57.251Z,5.00
2022-09-20T02:32:34.908Z,5.03
2022-09-20T02:35:20.700Z,4.93
2022-09-20T02:37:50.943Z,4.40
2022-09-20T02:40:25.563Z,4.73
2022-09-20T02:42:47.828Z,4.23
2022-09-20T02:45:29.190Z,4.47
2022-09-20T02:47:52.862Z,4.63
2022-09-20T02:50:27.359Z,4.17
2022-09-20T02:52:58.079Z,3.97
2022-09-20T02:55:41.200Z,4.17
2022-09-20T02:58:22.189Z,4.00
2022-09-20T03:00:53.832Z,3.70
2022-09-20T03:03:19.126Z,4.83
2022-09-20T03:06:02.756Z,4.60
2022-09-20T03:08:32.785Z,4.67
2022-09-20T03:10:58.436Z,5.57
2022-09-20T03:13:33.300Z,4.23
2022-09-20T03:16:14.145Z,4.87
2022-09-20T03:18:48.753Z,4.00
2022-09-20T03:21:29.681Z,4.33
2022-09-20T03:24:10.935Z,3.90
2022-09-20T03:26:52.030Z,4.60
2022-09-20T03:29:14.208Z,4.47
2022-09-20T03:32:02.269Z,4.07
2022-09-20T03:34:33.676Z,4.47
2022-09-20T03:37:01.941Z,3.90
2022-09-20T03:39:33.043Z,4.43
2022-09-20T03:42:03.584Z,4.30
2022-09-20T03:44:32.580Z,4.47
2022-09-20T03:47:13.162Z,3.97
2022-09-20T03:49:41.928Z,4.30
2022-09-20T03:52:19.279Z,4.60
2022-09-20T03:54:41.716Z,4.77
2022-09-20T03:57:12.811Z,4.27
2022-09-20T03:59:48.358Z,4.67
2022-09-20T04:02:29.749Z,4.10
2022-09-20T04:04:52.054Z,4.40
2022-09-20T04:07:33.223Z,4.77
2022-09-20T04:10:05.066Z,4.40
2022-09-20T04:12:36.652Z,4.10
2022-09-20T04:15:20.833Z,4.80
2022-09-20T04:17:50.308Z,4.17
2022-09-20T04:20:15.591Z,4.63
2022-09-20T04:22:37.950Z,5.47
2022-09-20T04:25:13.285Z,4.33
2022-09-20T04:27:42.125Z,4.43
2022-09-20T04:30:07.713Z,4.47
2022-09-20T04:32:36.817Z,4.80
2022-09-20T04:35:32.401Z,5.00
2022-09-20T04:37:55.002Z,4.63
2022-09-20T04:40:26.428Z,4.80
2022-09-20T04:42:55.002Z,5.47
2022-09-20T04:45:35.682Z,4.47
2022-09-20T04:48:01.063Z,5.10
2022-09-20T04:50:32.609Z,5.40
2022-09-20T04:52:55.166Z,4.70
2022-09-20T04:55:23.710Z,4.60
2022-09-20T04:57:53.977Z,5.07
2022-09-20T05:00:16.443Z,5.37
2022-09-20T05:02:51.540Z,5.70
2022-09-20T05:05:20.936Z,5.57
2022-09-20T05:07:56.099Z,5.50
2022-09-20T05:10:35.715Z,6.27
2022-09-20T05:13:14.124Z,5.57
2022-09-20T05:18:36.911Z,5.63
2022-09-20T05:21:18.449Z,5.70
2022-09-20T05:23:52.224Z,5.13
2022-09-20T05:26:17.531Z,6.43
2022-09-20T05:28:45.335Z,5.83
2022-09-20T05:31:26.586Z,6.43
2022-09-20T05:34:05.780Z,5.90
2022-09-20T05:36:34.834Z,5.43
2022-09-20T05:39:03.455Z,6.50
2022-09-20T05:41:45.153Z,5.50
2022-09-20T05:44:41.029Z,4.93
2022-09-20T05:47:12.830Z,5.47
2022-09-20T05:49:38.112Z,5.23
2022-09-20T05:52:19.179Z,5.80
2022-09-20T05:54:41.361Z,6.00
2022-09-20T05:57:07.252Z,6.13
2022-09-20T05:59:32.236Z,5.93
2022-09-20T06:02:13.465Z,5.27
2022-09-20T06:04:41.898Z,5.30
2022-09-20T06:07:29.791Z,5.33
2022-09-20T06:09:52.023Z,6.27
2022-09-20T06:12:35.642Z,5.30
2022-09-20T06:15:03.215Z,5.40
2022-09-20T06:17:28.446Z,5.83
2022-09-20T06:20:09.821Z,5.47
2022-09-20T06:22:34.157Z,6.37
2022-09-20T06:25:01.827Z,5.37
2022-09-20T06:27:27.108Z,6.07
2022-09-20T06:29:52.056Z,6.50
2022-09-20T06:32:22.966Z,6.07
2022-09-20T06:34:45.841Z,7.17
2022-09-20T06:37:58.817Z,5.90
2022-09-20T06:41:00.113Z,6.50
2022-09-20T06:43:22.411Z,6.40
2022-09-20T06:45:44.946Z,6.10
2022-09-20T06:48:09.001Z,6.30
2022-09-20T06:50:32.673Z,6.50
2022-09-20T06:52:55.048Z,5.57
2022-09-20T06:55:28.430Z,5.40
2022-09-20T06:57:51.537Z,5.60
2022-09-20T07:00:15.776Z,5.70
2022-09-20T07:02:38.109Z,5.47
2022-09-20T07:05:00.433Z,5.43
2022-09-20T07:07:23.957Z,5.23
2022-09-20T07:09:47.567Z,5.67
2022-09-20T07:12:11.601Z,4.73
2022-09-20T07:14:33.986Z,5.37
2022-09-20T07:16:56.190Z,5.37
2022-09-20T07:19:18.509Z,4.67
2022-09-20T07:21:40.724Z,4.77
2022-09-20T07:24:03.142Z,4.50
2022-09-20T07:26:26.910Z,3.87
2022-09-20T07:28:49.598Z,3.90
2022-09-20T07:31:11.886Z,4.03
2022-09-20T07:33:34.134Z,3.83
2022-09-20T07:35:56.407Z,3.90
2022-09-20T07:38:19.034Z,3.67
2022-09-20T07:40:41.289Z,3.93
2022-09-20T07:43:03.614Z,4.03
2022-09-20T07:45:26.144Z,4.00
2022-09-20T07:47:48.381Z,3.97
2022-09-20T07:50:11.443Z,3.73
2022-09-20T07:52:33.721Z,3.72
2022-09-20T07:54:56.228Z,3.70
2022-09-20T07:57:18.508Z,3.90
2022-09-20T07:59:40.759Z,4.13
2022-09-20T08:02:03.087Z,3.77
2022-09-20T08:04:37.435Z,4.00
2022-09-20T08:07:01.433Z,4.10
2022-09-20T08:09:23.711Z,4.33
2022-09-20T08:11:46.420Z,4.43
2022-09-20T08:14:09.539Z,3.80
2022-09-20T08:16:32.952Z,3.90
2022-09-20T08:18:57.226Z,3.63
2022-09-20T08:21:19.622Z,3.65
2022-09-20T08:23:43.089Z,3.83
2022-09-20T08:26:07.775Z,3.92
2022-09-20T08:28:33.785Z,3.97
2022-09-20T08:31:01.974Z,4.07
2022-09-20T08:33:24.448Z,3.80
2022-09-20T08:35:49.479Z,3.65
2022-09-20T08:41:02.404Z,4.20
2022-09-20T08:43:28.616Z,3.50
2022-09-20T08:45:50.878Z,3.97
2022-09-20T08:48:16.301Z,4.20
2022-09-20T08:50:38.567Z,3.65
2022-09-20T08:53:04.890Z,2.97
2022-09-20T08:55:36.509Z,3.53
2022-09-20T08:58:02.141Z,4.75
2022-09-20T09:00:29.768Z,3.40
2022-09-20T09:02:54.801Z,3.83
2022-09-20T09:05:31.453Z,3.40
2022-09-20T09:07:53.796Z,2.45
2022-09-20T09:10:17.031Z,2.40
2022-09-20T09:12:39.737Z,2.70
2022-09-20T09:15:07.732Z,2.90
2022-09-20T09:17:30.919Z,3.10
2022-09-20T09:19:54.869Z,2.45
2022-09-20T09:22:36.769Z,2.67
2022-09-20T09:25:11.322Z,2.20
2022-09-20T09:27:37.231Z,2.25
2022-09-20T09:29:59.520Z,2.15
2022-09-20T09:32:23.793Z,2.13
2022-09-20T09:34:46.158Z,2.17
2022-09-20T09:37:26.318Z,1.52
2022-09-20T09:40:05.954Z,1.60
2022-09-20T09:42:28.875Z,1.88
2022-09-20T09:44:51.121Z,2.05
2022-09-20T09:47:24.232Z,1.73
2022-09-20T09:50:03.747Z,1.77
2022-09-20T09:52:33.183Z,2.28
2022-09-20T09:55:02.218Z,2.05
2022-09-20T09:57:41.085Z,2.17
2022-09-20T10:00:22.508Z,2.08
2022-09-20T10:02:54.509Z,2.20
2022-09-20T10:05:16.712Z,2.10
2022-09-20T10:07:42.053Z,1.83
2022-09-20T10:10:22.288Z,1.80
2022-09-20T10:13:03.539Z,1.60
2022-09-20T10:15:31.416Z,1.63
2022-09-20T10:18:28.902Z,1.20
2022-09-20T10:21:10.048Z,1.25
2022-09-20T10:26:30.588Z,1.65
2022-09-20T10:29:17.866Z,1.30
2022-09-20T10:31:48.269Z,1.55
2022-09-20T10:34:10.520Z,2.05
2022-09-20T10:36:51.459Z,1.77
2022-09-20T10:39:20.821Z,1.35
2022-09-20T10:42:05.924Z,1.30
2022-09-20T10:44:35.529Z,1.55
2022-09-20T10:47:02.935Z,1.02
2022-09-20T10:49:28.857Z,1.25
2022-09-20T10:51:58.464Z,1.65
2022-09-20T10:54:21.096Z,1.52
2022-09-20T10:56:51.592Z,1.40
2022-09-20T10:59:25.037Z,1.67
2022-09-20T11:01:59.642Z,1.42
2022-09-20T11:04:40.706Z,1.45
2022-09-20T11:07:03.149Z,1.10
2022-09-20T11:09:26.749Z,1.70
2022-09-20T11:11:51.473Z,1.45
2022-09-20T11:14:21.268Z,1.60
2022-09-20T11:16:47.945Z,1.70
2022-09-20T11:19:17.332Z,1.60
2022-09-20T11:21:59.787Z,2.05
2022-09-20T11:24:35.101Z,1.98
2022-09-20T11:26:59.444Z,1.77
2022-09-20T11:29:21.919Z,2.40
2022-09-20T11:31:46.958Z,1.88
2022-09-20T11:34:13.148Z,2.15
2022-09-20T11:36:40.986Z,1.70
2022-09-20T11:39:12.045Z,1.60
2022-09-20T11:41:34.300Z,1.90
2022-09-20T11:43:58.143Z,2.10
2022-09-20T11:46:24.722Z,2.30
2022-09-20T11:48:59.058Z,2.60
2022-09-20T11:51:28.877Z,2.30
2022-09-20T11:53:55.179Z,2.53
2022-09-20T11:56:20.620Z,3.25
2022-09-20T11:58:50.480Z,2.17
2022-09-20T12:01:14.109Z,2.70
2022-09-20T12:03:37.227Z,2.45
2022-09-20T12:06:03.767Z,2.30
2022-09-20T12:08:39.993Z,2.03
2022-09-20T12:11:08.963Z,2.03
2022-09-20T12:13:31.958Z,2.25
2022-09-20T12:16:00.387Z,1.52
2022-09-20T12:18:31.090Z,1.55
2022-09-20T12:20:56.664Z,1.92
2022-09-20T12:23:39.092Z,1.80
2022-09-20T12:26:03.836Z,1.83
2022-09-20T12:28:34.124Z,1.00
2022-09-20T12:31:15.223Z,1.35
2022-09-20T12:33:56.892Z,1.20
2022-09-20T12:36:19.451Z,1.30
2022-09-20T12:38:48.153Z,1.25
2022-09-20T12:41:15.372Z,1.33
2022-09-20T12:43:39.856Z,1.80
2022-09-20T12:46:06.417Z,1.50
2022-09-20T12:48:35.626Z,1.05
2022-09-20T12:51:21.265Z,1.45
2022-09-20T12:53:43.814Z,1.70
2022-09-20T12:56:07.529Z,1.48
2022-09-20T12:58:35.499Z,1.30
2022-09-20T13:00:59.309Z,1.50
2022-09-20T13:03:31.945Z,1.40
2022-09-20T13:06:06.555Z,1.60
2022-09-20T13:08:30.116Z,1.70
2022-09-20T13:11:03.443Z,2.08
2022-09-20T13:13:36.176Z,1.25
2022-09-20T13:15:59.241Z,1.60
2022-09-20T13:18:22.908Z,1.38
2022-09-20T13:20:47.205Z,1.40
2022-09-20T13:23:17.400Z,1.83
2022-09-20T13:25:39.945Z,1.15
2022-09-20T13:28:08.419Z,1.15
2022-09-20T13:30:32.731Z,1.15
2022-09-20T13:32:55.258Z,1.08
2022-09-20T13:35:22.356Z,0.80
2022-09-20T13:37:50.922Z,0.88
2022-09-20T13:40:24.183Z,1.27
2022-09-20T13:42:47.340Z,1.20
2022-09-20T13:45:13.689Z,1.13
2022-09-20T13:47:43.088Z,1.00
2022-09-20T13:50:25.183Z,1.42
2022-09-20T13:52:49.666Z,1.33
2022-09-20T13:55:30.717Z,1.33
2022-09-20T13:57:54.016Z,1.30
2022-09-20T14:00:16.836Z,0.95
2022-09-20T14:02:40.232Z,1.20
2022-09-20T14:05:05.303Z,1.00
2022-09-20T14:07:29.473Z,1.20
2022-09-20T14:09:51.798Z,1.30
2022-09-20T14:12:14.891Z,1.50
2022-09-20T14:14:37.382Z,1.02
2022-09-20T14:17:00.884Z,1.15
2022-09-20T14:19:26.375Z,0.90
2022-09-20T14:21:48.926Z,1.02
2022-09-20T14:24:11.997Z,0.95
2022-09-20T14:26:36.284Z,1.10
2022-09-20T14:29:18.478Z,1.02
2022-09-20T14:31:43.192Z,0.98
2022-09-20T14:34:05.539Z,0.90
2022-09-20T14:36:29.548Z,0.80
2022-09-20T14:38:53.673Z,0.70
2022-09-20T14:41:24.659Z,0.73
2022-09-20T14:43:46.920Z,0.75
2022-09-20T14:46:16.459Z,0.57
2022-09-20T14:48:42.986Z,0.63
2022-09-20T14:51:11.734Z,0.68
2022-09-20T14:53:37.076Z,0.57
2022-09-20T14:56:01.708Z,0.95
2022-09-20T14:58:27.621Z,0.55
2022-09-20T15:00:58.542Z,0.63
2022-09-20T15:03:26.019Z,0.65
2022-09-20T15:05:50.058Z,0.70
2022-09-20T15:08:13.626Z,0.70
2022-09-20T15:10:35.995Z,0.80
2022-09-20T15:12:58.549Z,0.73
2022-09-20T15:15:20.819Z,0.57
2022-09-20T15:17:43.892Z,0.80
2022-09-20T15:20:06.308Z,0.80
2022-09-20T15:22:30.028Z,0.40
2022-09-20T15:24:52.465Z,0.40
2022-09-20T15:27:15.327Z,0.57
2022-09-20T15:29:37.526Z,0.50
2022-09-20T15:31:59.890Z,0.63
2022-09-20T15:34:22.083Z,0.68
2022-09-20T15:36:44.725Z,0.30
2022-09-20T15:39:07.037Z,0.47
2022-09-20T15:41:31.491Z,0.50
2022-09-20T15:43:53.905Z,0.60
2022-09-20T15:46:19.705Z,0.77
2022-09-20T15:48:42.942Z,0.50
2022-09-20T15:51:06.742Z,0.70
2022-09-20T15:53:36.911Z,0.60
2022-09-20T15:56:02.695Z,0.63
2022-09-20T15:58:26.045Z,0.68
2022-09-20T16:00:49.899Z,0.70
2022-09-20T16:03:12.489Z,0.80
2022-09-20T16:05:35.000Z,0.68
2022-09-20T16:07:58.638Z,0.47
2022-09-20T16:10:21.181Z,0.90
2022-09-20T16:12:43.412Z,0.70
2022-09-20T16:15:05.854Z,0.50
2022-09-20T16:17:46.815Z,0.68
2022-09-20T16:20:10.045Z,0.65
2022-09-20T16:22:34.038Z,0.90
2022-09-20T16:24:56.496Z,0.77
2022-09-20T16:27:18.696Z,0.73
2022-09-20T16:29:41.188Z,0.98
2022-09-20T16:32:03.823Z,0.75
2022-09-20T16:34:33.487Z,0.65
2022-09-20T16:36:59.533Z,0.82
2022-09-20T16:39:29.212Z,0.90
2022-09-20T16:41:52.864Z,1.05
2022-09-20T16:44:15.925Z,1.10
2022-09-20T16:46:38.213Z,0.90
2022-09-20T16:49:01.057Z,0.98
2022-09-20T16:51:26.084Z,1.02
2022-09-20T16:53:48.421Z,0.88
2022-09-20T16:56:19.221Z,0.88
2022-09-20T16:58:42.038Z,0.90
2022-09-20T17:01:05.255Z,0.77
2022-09-20T17:03:27.705Z,1.20
2022-09-20T17:05:51.231Z,0.98
2022-09-20T17:08:13.410Z,1.20
2022-09-20T17:10:35.640Z,1.00
2022-09-20T17:12:59.512Z,0.70
2022-09-20T17:15:21.748Z,1.17
2022-09-20T17:17:43.960Z,0.80
2022-09-20T17:20:07.809Z,1.00
2022-09-20T17:22:30.081Z,1.15
2022-09-20T17:24:52.272Z,1.10
2022-09-20T17:27:15.117Z,1.17
2022-09-20T17:29:37.467Z,0.98
2022-09-20T17:32:01.162Z,0.90
2022-09-20T17:34:24.582Z,0.95
2022-09-20T17:36:47.033Z,1.10
2022-09-20T17:39:10.967Z,1.10
2022-09-20T17:41:37.390Z,1.00
2022-09-20T17:44:00.227Z,1.30
2022-09-20T17:46:32.478Z,0.90
2022-09-20T17:48:55.696Z,1.30
2022-09-20T17:51:19.195Z,1.55
2022-09-20T17:53:43.619Z,1.37
2022-09-20T17:56:08.045Z,1.30
2022-09-20T17:58:30.791Z,1.40
2022-09-20T18:00:58.793Z,1.40
2022-09-20T18:03:21.258Z,1.07
2022-09-20T18:05:43.631Z,1.20
2022-09-20T18:08:05.929Z,1.40
2022-09-20T18:10:29.170Z,2.20
2022-09-20T18:12:51.508Z,2.70
2022-09-20T18:15:14.049Z,2.57
2022-09-20T18:17:36.404Z,2.10
2022-09-20T18:19:58.616Z,5.90
2022-09-20T18:22:21.005Z,2.63
2022-09-20T18:24:43.311Z,2.07
2022-09-20T18:27:05.823Z,2.03
2022-09-20T18:29:29.192Z,1.50
2022-09-20T18:31:56.822Z,1.53
2022-09-20T18:34:20.132Z,1.70
2022-09-20T18:36:42.821Z,9.20
2022-09-20T18:39:06.074Z,4.60
2022-09-20T18:41:31.308Z,4.00
2022-09-20T18:44:04.057Z,3.83
2022-09-20T18:46:27.087Z,3.53
2022-09-20T18:48:49.396Z,3.80
2022-09-20T18:51:12.595Z,2.90
2022-09-20T18:53:36.155Z,1.80
2022-09-20T18:56:06.036Z,2.20
2022-09-20T18:58:28.325Z,2.23
2022-09-20T19:00:56.790Z,2.60
2022-09-20T19:03:22.824Z,1.90
2022-09-20T19:05:56.238Z,2.80
2022-09-20T19:08:18.507Z,2.57
2022-09-20T19:10:49.998Z,2.27
2022-09-20T19:13:18.373Z,2.33
2022-09-20T19:15:49.984Z,2.00
2022-09-20T19:18:25.330Z,2.23
2022-09-20T19:20:51.029Z,1.93
2022-09-20T19:23:31.904Z,1.93
2022-09-20T19:26:06.591Z,1.90
2022-09-20T19:28:30.333Z,1.73
2022-09-20T19:30:53.231Z,2.00
2022-09-20T19:33:17.728Z,1.87
2022-09-20T19:35:40.933Z,1.90
2022-09-20T19:38:27.089Z,2.10
2022-09-20T19:40:49.289Z,2.00
2022-09-20T19:43:14.571Z,1.80
2022-09-20T19:45:38.245Z,2.23
2022-09-20T19:48:13.144Z,2.00
2022-09-20T19:50:52.498Z,2.80
2022-09-20T19:53:17.068Z,3.07
2022-09-20T19:55:39.521Z,3.27
2022-09-20T19:58:02.208Z,2.73
2022-09-20T20:00:24.559Z,2.87
2022-09-20T20:02:47.102Z,2.93
2022-09-20T20:05:11.883Z,2.50
2022-09-20T20:07:37.507Z,3.07
2022-09-20T20:10:06.953Z,2.70
2022-09-20T20:12:36.625Z,2.73
2022-09-20T20:15:02.110Z,2.40
2022-09-20T20:17:24.485Z,2.50
2022-09-20T20:20:05.625Z,2.37
2022-09-20T20:22:41.280Z,2.60
2022-09-20T20:25:15.773Z,2.47
2022-09-20T20:27:38.496Z,2.23
2022-09-20T20:30:00.717Z,2.40
2022-09-20T20:32:23.340Z,2.50
2022-09-20T20:34:46.861Z,2.30
2022-09-20T20:37:09.238Z,2.30
2022-09-20T20:39:31.975Z,2.20
2022-09-20T20:42:01.882Z,1.80
2022-09-20T20:44:24.948Z,1.80
2022-09-20T20:46:47.795Z,1.53
2022-09-20T20:49:09.984Z,1.80
2022-09-20T20:51:33.493Z,2.27
2022-09-20T20:53:55.957Z,2.20
2022-09-20T20:56:19.535Z,2.17
2022-09-20T20:58:42.974Z,1.80
2022-09-20T21:01:06.373Z,2.30
2022-09-20T21:03:28.646Z,2.23
2022-09-20T21:05:54.841Z,2.10
2022-09-20T21:08:17.055Z,2.30
2022-09-20T21:10:40.096Z,2.30
2022-09-20T21:13:02.627Z,2.33
2022-09-20T21:15:24.912Z,2.20
2022-09-20T21:17:54.233Z,2.10
2022-09-20T21:20:16.951Z,2.50
2022-09-20T21:22:39.225Z,3.10
2022-09-20T21:25:01.531Z,3.30
2022-09-20T21:27:26.055Z,2.37
2022-09-20T21:29:48.285Z,2.90
2022-09-20T21:32:12.093Z,2.83
2022-09-20T21:34:34.891Z,3.37
2022-09-20T21:36:57.181Z,3.50
2022-09-20T21:39:20.159Z,3.60
2022-09-20T21:41:42.586Z,6.23
2022-09-20T21:44:05.466Z,7.10
2022-09-20T21:46:30.387Z,5.80
2022-09-20T21:48:54.193Z,4.93
2022-09-20T21:51:18.202Z,5.13
2022-09-20T21:53:41.179Z,6.73
2022-09-20T21:56:04.732Z,6.87
2022-09-20T21:58:27.462Z,6.23
2022-09-20T22:01:05.179Z,6.60
2022-09-20T22:03:34.584Z,5.07
2022-09-20T22:05:56.817Z,4.37
2022-09-20T22:08:19.107Z,5.17
2022-09-20T22:10:41.717Z,4.60
2022-09-20T22:13:03.902Z,5.70
2022-09-20T22:15:26.120Z,5.47
2022-09-20T22:17:48.344Z,4.53
2022-09-20T22:20:11.040Z,4.40
2022-09-20T22:22:33.256Z,3.73
2022-09-20T22:24:55.874Z,4.10
2022-09-20T22:27:18.197Z,3.60
2022-09-20T22:29:41.180Z,3.53
2022-09-20T22:32:03.418Z,4.47
2022-09-20T22:34:25.766Z,3.33
2022-09-20T22:36:48.139Z,3.87
2022-09-20T22:39:17.020Z,3.83
2022-09-20T22:41:41.169Z,4.23
2022-09-20T22:44:03.997Z,3.77
2022-09-20T22:46:29.466Z,3.90
2022-09-20T22:48:51.913Z,3.73
2022-09-20T22:51:21.308Z,3.33
2022-09-20T22:53:44.195Z,3.70
2022-09-20T22:56:06.537Z,3.73
2022-09-20T22:58:32.110Z,3.70
2022-09-20T23:00:54.362Z,3.93
2022-09-20T23:03:16.633Z,4.03
2022-09-20T23:05:42.113Z,3.97
2022-09-20T23:08:05.096Z,4.00
2022-09-20T23:10:27.492Z,3.87
2022-09-20T23:12:53.147Z,3.93
2022-09-20T23:15:15.979Z,4.60
2022-09-20T23:17:41.307Z,3.97
2022-09-20T23:20:03.990Z,4.17
2022-09-20T23:22:26.199Z,4.30
2022-09-20T23:24:48.492Z,4.23
2022-09-20T23:27:20.188Z,4.23
2022-09-20T23:29:42.659Z,4.07
2022-09-20T23:32:04.930Z,4.23
2022-09-20T23:34:27.168Z,4.50
2022-09-20T23:36:49.377Z,4.17
2022-09-20T23:39:12.201Z,3.87
2022-09-20T23:41:36.501Z,4.00
2022-09-20T23:43:58.750Z,4.00
2022-09-20T23:46:21.761Z,4.10
2022-09-20T23:48:45.094Z,3.63
2022-09-20T23:51:14.953Z,3.83
2022-09-20T23:53:37.144Z,3.83
2022-09-20T23:56:00.228Z,4.30
2022-09-20T23:58:23.437Z,3.87
